Strona główna
METAR-TAF:

METAR-TAF

Lotnisko :

Monte Malanotte

Prato Nevoso, Włochy

Szerokość geograficzna: 44-15N, Długość geograficzna: 007-48E, wysokość: 1741 m

Aktualna obserwacja pogody

Raport powstał 8 godziny i 35 minut temu, godzina 17:55 UTC
Wiatr 4 kt od północny wschód
Temperatura 12°C
Wilgotność 94%
Ciśnienie 1019 hPa
Widzialność: 1500 m
Przerywane chmury na wysokości 1200 ft
zamglenie

METAR: LIMY 231755Z 05004KT 1500 BR BKN012 12/11 Q1019 RMK BKN SCT053 VAL NEBBIA SCT VIS MIN 1500

czas: 04:30 (02:30 UTC)


TAF: brakujący

Obserwacja i prognoza pogody dla ponad 4000 lotnisk (raport METAR i TAF).

Dostępne stacje oznaczono żółtymi i czerwonymi punktami na mapie.

Najedź kursorem aby zobaczyć nazwę stacji.

Kliknij aby zobaczyć obserwacje i prognozy pogody.

Aby zmienić mapę: kliknij na zielony przycisk z czarnym krzyżykiem, aby powiększyć; na zielony przycisk z myślnikiem, aby pomniejszyć; na zielone strzałki, aby przejść do map sąsiednich.


METAR-TAF: